createdAt,value
2023-05-05T00:00:04.892Z,94948.00
2023-05-05T00:01:04.894Z,94944.00
2023-05-05T00:02:04.902Z,94948.00
2023-05-05T00:03:04.920Z,94946.00
2023-05-05T00:04:04.951Z,94943.00
2023-05-05T00:05:04.900Z,94946.00
2023-05-05T00:06:05.017Z,94946.00
2023-05-05T00:07:04.987Z,94946.00
2023-05-05T00:08:04.997Z,94944.00
2023-05-05T00:09:05.025Z,94946.00
2023-05-05T00:10:05.081Z,94946.00
2023-05-05T00:11:05.063Z,94946.00
2023-05-05T00:12:05.122Z,94946.00
2023-05-05T00:13:05.194Z,94946.00
2023-05-05T00:14:05.117Z,94946.00
2023-05-05T00:15:05.127Z,94946.00
2023-05-05T00:16:05.152Z,94946.00
2023-05-05T00:17:05.262Z,94948.00
2023-05-05T00:18:05.279Z,94946.00
2023-05-05T00:19:05.201Z,94948.00
2023-05-05T00:20:05.325Z,94948.00
2023-05-05T00:21:05.255Z,94946.00
2023-05-05T00:22:05.263Z,94946.00
2023-05-05T00:23:05.382Z,94944.00
2023-05-05T00:24:05.454Z,94948.00
2023-05-05T00:25:05.581Z,94948.00
2023-05-05T00:26:05.798Z,94948.00
2023-05-05T00:27:05.664Z,94948.00
2023-05-05T00:28:05.671Z,94946.00
2023-05-05T00:29:05.704Z,94946.00
2023-05-05T00:30:05.831Z,94948.00
2023-05-05T00:31:05.773Z,94950.00
2023-05-05T00:32:05.758Z,94950.00
2023-05-05T00:33:05.794Z,94950.00
2023-05-05T00:34:05.789Z,94950.00
2023-05-05T00:35:05.822Z,94948.00
2023-05-05T00:36:05.799Z,94952.00
2023-05-05T00:37:05.801Z,94948.00
2023-05-05T00:38:05.876Z,94950.00
2023-05-05T00:39:05.990Z,94950.00
2023-05-05T00:40:06.232Z,94950.00
2023-05-05T00:41:06.018Z,94952.00
2023-05-05T00:42:06.040Z,94948.00
2023-05-05T00:43:06.069Z,94950.00
2023-05-05T00:44:06.038Z,94952.00
2023-05-05T00:45:06.052Z,94952.00
2023-05-05T00:46:06.109Z,94952.00
2023-05-05T00:47:06.191Z,94952.00
2023-05-05T00:48:06.288Z,94952.00
2023-05-05T00:49:06.276Z,94952.00
2023-05-05T00:50:06.643Z,94952.00
2023-05-05T00:51:06.272Z,94954.00
2023-05-05T00:52:06.335Z,94954.00
2023-05-05T00:53:06.297Z,94956.00
2023-05-05T00:54:06.283Z,94954.00
2023-05-05T00:55:06.316Z,94956.00
2023-05-05T00:56:06.411Z,94952.00
2023-05-05T00:57:06.391Z,94952.00
2023-05-05T00:58:06.421Z,94952.00
2023-05-05T00:59:06.431Z,94952.00
2023-05-05T01:00:06.688Z,94950.00
2023-05-05T01:01:06.541Z,94950.00
2023-05-05T01:02:06.563Z,94952.00
2023-05-05T01:03:06.659Z,94950.00
2023-05-05T01:04:06.763Z,94946.00
2023-05-05T01:05:06.594Z,94950.00
2023-05-05T01:06:06.606Z,94948.00
2023-05-05T01:07:06.732Z,94948.00
2023-05-05T01:08:06.723Z,94946.00
2023-05-05T01:09:06.779Z,94944.00
2023-05-05T01:10:18.981Z,94948.00
2023-05-05T01:11:07.797Z,94946.00
2023-05-05T01:12:06.788Z,94946.00
2023-05-05T01:13:06.809Z,94946.00
2023-05-05T01:14:06.756Z,94944.00
2023-05-05T01:15:06.759Z,94944.00
2023-05-05T01:16:06.790Z,94944.00
2023-05-05T01:17:06.707Z,94944.00
2023-05-05T01:18:06.905Z,94943.00
2023-05-05T01:19:06.680Z,94944.00
2023-05-05T01:20:06.788Z,94944.00
2023-05-05T01:21:06.672Z,94944.00
2023-05-05T01:22:06.667Z,94944.00
2023-05-05T01:23:06.652Z,94946.00
2023-05-05T01:24:06.640Z,94946.00
2023-05-05T01:25:06.672Z,94944.00
2023-05-05T01:26:06.627Z,94944.00
2023-05-05T01:27:06.646Z,94946.00
2023-05-05T01:28:06.608Z,94948.00
2023-05-05T01:29:06.606Z,94948.00
2023-05-05T01:30:06.743Z,94948.00
2023-05-05T01:31:06.595Z,94952.00
2023-05-05T01:32:06.602Z,94952.00
2023-05-05T01:33:06.604Z,94952.00
2023-05-05T01:34:06.617Z,94950.00
2023-05-05T01:35:06.626Z,94952.00
2023-05-05T01:36:06.637Z,94952.00
2023-05-05T01:37:06.634Z,94948.00
2023-05-05T01:38:06.838Z,94952.00
2023-05-05T01:39:06.696Z,94954.00
2023-05-05T01:40:06.979Z,94954.00
2023-05-05T01:41:06.747Z,94950.00
2023-05-05T01:42:06.761Z,94952.00
2023-05-05T01:43:06.797Z,94952.00
2023-05-05T01:44:06.797Z,94952.00
2023-05-05T01:45:06.829Z,94952.00
2023-05-05T01:46:06.836Z,94950.00
2023-05-05T01:47:06.815Z,94954.00
2023-05-05T01:48:06.835Z,94950.00
2023-05-05T01:49:06.885Z,94952.00
2023-05-05T01:50:07.017Z,94952.00
2023-05-05T01:51:06.931Z,94952.00
2023-05-05T01:52:06.949Z,94954.00
2023-05-05T01:53:06.967Z,94954.00
2023-05-05T01:54:06.969Z,94952.00
2023-05-05T01:55:06.989Z,94954.00
2023-05-05T01:56:07.007Z,94952.00
2023-05-05T01:57:06.974Z,94952.00
2023-05-05T01:58:07.015Z,94956.00
2023-05-05T01:59:07.051Z,94956.00
2023-05-05T02:00:07.286Z,94956.00
2023-05-05T02:01:07.071Z,94956.00
2023-05-05T02:02:07.094Z,94956.00
2023-05-05T02:03:07.181Z,94956.00
2023-05-05T02:04:07.122Z,94956.00
2023-05-05T02:05:07.136Z,94954.00
2023-05-05T02:06:07.218Z,94956.00
2023-05-05T02:07:07.208Z,94958.00
2023-05-05T02:08:07.236Z,94958.00
2023-05-05T02:09:07.245Z,94960.00
2023-05-05T02:10:07.468Z,94962.00
2023-05-05T02:11:07.282Z,94966.00
2023-05-05T02:12:07.394Z,94966.00
2023-05-05T02:13:07.401Z,94966.00
2023-05-05T02:14:07.345Z,94964.00
2023-05-05T02:15:07.363Z,94968.00
2023-05-05T02:16:07.406Z,94968.00
2023-05-05T02:17:07.402Z,94968.00
2023-05-05T02:18:07.422Z,94976.00
2023-05-05T02:19:07.460Z,94976.00
2023-05-05T02:20:07.703Z,94978.00
2023-05-05T02:21:07.483Z,94980.00
2023-05-05T02:22:07.505Z,94980.00
2023-05-05T02:23:07.540Z,94982.00
2023-05-05T02:24:07.543Z,94982.00
2023-05-05T02:25:07.604Z,94984.00
2023-05-05T02:26:07.622Z,94984.00
2023-05-05T02:27:07.634Z,94984.00
2023-05-05T02:28:07.690Z,94984.00
2023-05-05T02:29:07.708Z,94984.00
2023-05-05T02:30:07.982Z,94986.00
2023-05-05T02:31:07.714Z,94978.00
2023-05-05T02:32:07.754Z,94986.00
2023-05-05T02:33:07.758Z,94980.00
2023-05-05T02:34:07.763Z,94978.00
2023-05-05T02:35:07.794Z,94976.00
2023-05-05T02:36:07.826Z,94976.00
2023-05-05T02:37:07.876Z,94976.00
2023-05-05T02:38:07.904Z,94976.00
2023-05-05T02:39:07.910Z,94976.00
2023-05-05T02:40:08.120Z,94978.00
2023-05-05T02:41:07.967Z,94976.00
2023-05-05T02:42:07.978Z,94980.00
2023-05-05T02:43:08.054Z,94978.00
2023-05-05T02:44:08.020Z,94980.00
2023-05-05T02:45:08.029Z,94980.00
2023-05-05T02:46:08.121Z,94978.00
2023-05-05T02:47:08.094Z,94980.00
2023-05-05T02:48:08.295Z,94976.00
2023-05-05T02:49:08.163Z,94978.00
2023-05-05T02:50:08.237Z,94978.00
2023-05-05T02:51:08.197Z,94972.00
2023-05-05T02:52:08.206Z,94978.00
2023-05-05T02:53:08.258Z,94976.00
2023-05-05T02:54:08.281Z,94976.00
2023-05-05T02:55:08.287Z,94974.00
2023-05-05T02:56:08.340Z,94974.00
2023-05-05T02:57:08.366Z,94974.00
2023-05-05T02:58:08.428Z,94974.00
2023-05-05T02:59:08.399Z,94976.00
2023-05-05T03:00:08.603Z,94976.00
2023-05-05T03:01:08.506Z,94976.00
2023-05-05T03:02:08.477Z,94978.00
2023-05-05T03:03:08.586Z,94978.00
2023-05-05T03:04:08.548Z,94976.00
2023-05-05T03:05:08.548Z,94976.00
2023-05-05T03:06:08.581Z,94980.00
2023-05-05T03:07:08.644Z,94980.00
2023-05-05T03:08:08.658Z,94980.00
2023-05-05T03:09:08.669Z,94984.00
2023-05-05T03:10:08.890Z,94982.00
2023-05-05T03:11:08.735Z,94984.00
2023-05-05T03:12:08.780Z,94982.00
2023-05-05T03:13:08.954Z,94980.00
2023-05-05T03:14:08.868Z,94984.00
2023-05-05T03:15:08.847Z,94982.00
2023-05-05T03:16:08.947Z,94982.00
2023-05-05T03:17:08.922Z,94984.00
2023-05-05T03:18:08.942Z,94984.00
2023-05-05T03:19:08.961Z,94984.00
2023-05-05T03:20:09.079Z,94986.00
2023-05-05T03:21:09.064Z,94988.00
2023-05-05T03:22:09.064Z,94986.00
2023-05-05T03:23:09.071Z,94986.00
2023-05-05T03:24:09.103Z,94988.00
2023-05-05T03:25:09.126Z,94990.00
2023-05-05T03:26:09.150Z,94990.00
2023-05-05T03:27:09.178Z,94990.00
2023-05-05T03:28:09.185Z,94988.00
2023-05-05T03:29:09.197Z,94988.00
2023-05-05T03:30:09.541Z,94988.00
2023-05-05T03:31:09.273Z,94988.00
2023-05-05T03:32:09.366Z,94986.00
2023-05-05T03:33:09.387Z,94986.00
2023-05-05T03:34:09.356Z,94982.00
2023-05-05T03:35:09.353Z,94986.00
2023-05-05T03:36:09.379Z,94984.00
2023-05-05T03:37:09.396Z,94982.00
2023-05-05T03:38:09.418Z,94980.00
2023-05-05T03:39:09.450Z,94980.00
2023-05-05T03:40:09.595Z,94980.00
2023-05-05T03:41:09.522Z,94980.00
2023-05-05T03:42:09.549Z,94982.00
2023-05-05T03:43:09.566Z,94980.00
2023-05-05T03:44:09.584Z,94980.00
2023-05-05T03:45:09.601Z,94982.00
2023-05-05T03:46:09.678Z,94984.00
2023-05-05T03:47:09.702Z,94982.00
2023-05-05T03:48:09.791Z,94982.00
2023-05-05T03:49:09.744Z,94980.00
2023-05-05T03:50:09.855Z,94982.00
2023-05-05T03:51:09.800Z,94980.00
2023-05-05T03:52:09.838Z,94982.00
2023-05-05T03:53:09.868Z,94980.00
2023-05-05T03:54:09.917Z,94978.00
2023-05-05T03:55:09.939Z,94978.00
2023-05-05T03:56:09.958Z,94978.00
2023-05-05T03:57:09.989Z,94980.00
2023-05-05T03:58:10.035Z,94980.00
2023-05-05T03:59:10.075Z,94980.00
2023-05-05T04:00:10.093Z,94980.00
2023-05-05T04:01:10.109Z,94978.00
2023-05-05T04:02:10.153Z,94978.00
2023-05-05T04:03:10.408Z,94978.00
2023-05-05T04:04:10.211Z,94976.00
2023-05-05T04:05:10.227Z,94976.00
2023-05-05T04:06:10.253Z,94976.00
2023-05-05T04:07:10.268Z,94978.00
2023-05-05T04:08:10.329Z,94978.00
2023-05-05T04:09:10.358Z,94980.00
2023-05-05T04:10:10.621Z,94978.00
2023-05-05T04:11:10.394Z,94976.00
2023-05-05T04:12:10.464Z,94978.00
2023-05-05T04:13:10.540Z,94978.00
2023-05-05T04:14:10.501Z,94974.00
2023-05-05T04:15:10.522Z,94976.00
2023-05-05T04:16:10.550Z,94976.00
2023-05-05T04:17:10.560Z,94976.00
2023-05-05T04:18:10.654Z,94976.00
2023-05-05T04:19:10.968Z,94974.00
2023-05-05T04:20:10.848Z,94972.00
2023-05-05T04:21:10.670Z,94972.00
2023-05-05T04:22:10.703Z,94976.00
2023-05-05T04:23:10.731Z,94974.00
2023-05-05T04:24:10.745Z,94980.00
2023-05-05T04:25:10.776Z,94978.00
2023-05-05T04:26:10.840Z,94978.00
2023-05-05T04:27:10.871Z,94976.00
2023-05-05T04:28:10.862Z,94978.00
2023-05-05T04:29:10.895Z,94980.00
2023-05-05T04:30:10.931Z,94980.00
2023-05-05T04:31:11.022Z,94984.00
2023-05-05T04:32:10.998Z,94986.00
2023-05-05T04:33:11.027Z,94988.00
2023-05-05T04:34:11.058Z,94988.00
2023-05-05T04:35:11.058Z,94990.00
2023-05-05T04:36:11.153Z,94990.00
2023-05-05T04:37:11.138Z,94992.00
2023-05-05T04:38:11.193Z,94990.00
2023-05-05T04:39:11.230Z,94992.00
2023-05-05T04:40:11.248Z,94992.00
2023-05-05T04:41:11.267Z,94992.00
2023-05-05T04:42:11.274Z,94992.00
2023-05-05T04:43:11.315Z,94994.00
2023-05-05T04:44:11.333Z,94994.00
2023-05-05T04:45:11.386Z,94994.00
2023-05-05T04:46:11.425Z,94998.00
2023-05-05T04:47:13.212Z,94998.00
2023-05-05T04:48:11.424Z,94996.00
2023-05-05T04:49:11.405Z,94994.00
2023-05-05T04:50:11.488Z,94994.00
2023-05-05T04:51:11.394Z,94996.00
2023-05-05T04:52:11.403Z,94999.00
2023-05-05T04:53:11.399Z,94999.00
2023-05-05T04:54:11.370Z,94998.00
2023-05-05T04:55:11.367Z,94999.00
2023-05-05T04:56:11.399Z,95001.00
2023-05-05T04:57:11.361Z,95003.00
2023-05-05T04:58:11.391Z,95007.00
2023-05-05T04:59:11.332Z,95009.00
2023-05-05T05:00:11.540Z,95009.00
2023-05-05T05:01:11.328Z,95009.00
2023-05-05T05:02:11.368Z,95009.00
2023-05-05T05:03:11.360Z,95007.00
2023-05-05T05:04:11.326Z,95009.00
2023-05-05T05:05:11.306Z,95007.00
2023-05-05T05:06:11.295Z,95011.00
2023-05-05T05:07:11.271Z,95011.00
2023-05-05T05:08:11.305Z,95009.00
2023-05-05T05:09:11.245Z,95013.00
2023-05-05T05:10:11.336Z,95011.00
2023-05-05T05:11:11.256Z,95013.00
2023-05-05T05:12:11.263Z,95013.00
2023-05-05T05:13:12.692Z,95013.00
2023-05-05T05:14:11.263Z,95013.00
2023-05-05T05:15:11.224Z,95011.00
2023-05-05T05:16:11.284Z,95011.00
2023-05-05T05:17:11.192Z,95011.00
2023-05-05T05:18:11.179Z,95013.00
2023-05-05T05:19:11.202Z,95013.00
2023-05-05T05:20:11.452Z,95011.00
2023-05-05T05:21:11.403Z,95013.00
2023-05-05T05:22:11.159Z,95013.00
2023-05-05T05:23:11.233Z,95015.00
2023-05-05T05:24:11.151Z,95011.00
2023-05-05T05:25:11.127Z,95011.00
2023-05-05T05:26:11.248Z,95011.00
2023-05-05T05:27:12.012Z,95013.00
2023-05-05T05:28:11.203Z,95017.00
2023-05-05T05:29:11.134Z,95013.00
2023-05-05T05:30:11.116Z,95017.00
2023-05-05T05:31:11.169Z,95017.00
2023-05-05T05:32:11.136Z,95017.00
2023-05-05T05:33:11.187Z,95017.00
2023-05-05T05:34:12.717Z,95017.00
2023-05-05T05:35:11.139Z,95015.00
2023-05-05T05:36:11.179Z,95013.00
2023-05-05T05:37:11.304Z,95013.00
2023-05-05T05:38:11.202Z,95013.00
2023-05-05T05:39:11.230Z,95019.00
2023-05-05T05:40:11.298Z,95017.00
2023-05-05T05:41:11.326Z,95013.00
2023-05-05T05:42:11.307Z,95015.00
2023-05-05T05:43:11.343Z,95015.00
2023-05-05T05:44:11.316Z,95017.00
2023-05-05T05:45:11.326Z,95011.00
2023-05-05T05:46:11.457Z,95009.00
2023-05-05T05:47:11.770Z,95009.00
2023-05-05T05:48:11.611Z,95011.00
2023-05-05T05:49:11.620Z,95007.00
2023-05-05T05:50:11.609Z,95007.00
2023-05-05T05:51:11.649Z,95009.00
2023-05-05T05:52:11.673Z,95007.00
2023-05-05T05:53:11.683Z,95009.00
2023-05-05T05:54:11.724Z,95009.00
2023-05-05T05:55:11.854Z,95009.00
2023-05-05T05:56:11.809Z,95013.00
2023-05-05T05:57:11.807Z,95009.00
2023-05-05T05:58:11.885Z,95011.00
2023-05-05T05:59:11.802Z,95011.00
2023-05-05T06:00:12.438Z,95011.00
2023-05-05T06:01:11.796Z,95015.00
2023-05-05T06:02:11.875Z,95011.00
2023-05-05T06:03:11.914Z,95011.00
2023-05-05T06:04:11.873Z,95011.00
2023-05-05T06:05:11.803Z,95013.00
2023-05-05T06:06:11.881Z,95013.00
2023-05-05T06:07:12.414Z,95011.00
2023-05-05T06:08:11.956Z,95011.00
2023-05-05T06:09:11.978Z,95013.00
2023-05-05T06:10:25.833Z,95013.00
2023-05-05T06:11:12.954Z,95015.00
2023-05-05T06:12:11.974Z,95015.00
2023-05-05T06:13:12.027Z,95015.00
2023-05-05T06:14:11.930Z,95017.00
2023-05-05T06:15:11.930Z,95017.00
2023-05-05T06:16:11.918Z,95011.00
2023-05-05T06:17:11.955Z,95011.00
2023-05-05T06:18:11.944Z,95011.00
2023-05-05T06:19:11.989Z,95009.00
2023-05-05T06:20:11.883Z,95009.00
2023-05-05T06:21:11.912Z,95007.00
2023-05-05T06:22:11.888Z,95007.00
2023-05-05T06:23:11.878Z,95005.00
2023-05-05T06:24:11.931Z,95005.00
2023-05-05T06:25:11.841Z,95003.00
2023-05-05T06:26:11.832Z,95007.00
2023-05-05T06:27:11.836Z,95007.00
2023-05-05T06:28:11.874Z,95003.00
2023-05-05T06:29:12.429Z,95001.00
2023-05-05T06:30:11.864Z,95001.00
2023-05-05T06:31:11.886Z,94996.00
2023-05-05T06:32:11.920Z,94994.00
2023-05-05T06:33:11.877Z,94992.00
2023-05-05T06:34:11.905Z,94988.00
2023-05-05T06:35:11.987Z,94990.00
2023-05-05T06:36:12.128Z,94988.00
2023-05-05T06:37:12.095Z,94994.00
2023-05-05T06:38:12.129Z,94990.00
2023-05-05T06:39:14.024Z,94988.00
2023-05-05T06:40:12.122Z,94994.00
2023-05-05T06:41:12.079Z,94992.00
2023-05-05T06:42:12.086Z,94992.00
2023-05-05T06:43:12.051Z,94990.00
2023-05-05T06:44:12.055Z,94990.00
2023-05-05T06:45:12.048Z,94992.00
2023-05-05T06:46:12.046Z,94992.00
2023-05-05T06:47:12.453Z,94994.00
2023-05-05T06:48:14.910Z,94986.00
2023-05-05T06:49:12.037Z,94984.00
2023-05-05T06:50:12.037Z,94984.00
2023-05-05T06:51:12.010Z,94986.00
2023-05-05T06:52:12.072Z,94988.00
2023-05-05T06:53:11.992Z,94986.00
2023-05-05T06:54:11.982Z,94984.00
2023-05-05T06:55:11.978Z,94984.00
2023-05-05T06:56:11.999Z,94986.00
2023-05-05T06:57:12.021Z,94982.00
2023-05-05T06:58:12.093Z,94984.00
2023-05-05T06:59:11.998Z,94980.00
2023-05-05T07:00:12.035Z,94984.00
2023-05-05T07:01:11.964Z,94982.00
2023-05-05T07:02:11.956Z,94980.00
2023-05-05T07:03:12.071Z,94976.00
2023-05-05T07:04:12.058Z,94976.00
2023-05-05T07:05:11.974Z,94976.00
2023-05-05T07:06:11.939Z,94972.00
2023-05-05T07:07:11.956Z,94972.00
2023-05-05T07:08:11.952Z,94970.00
2023-05-05T07:09:11.905Z,94974.00
2023-05-05T07:10:11.908Z,94972.00
2023-05-05T07:11:11.868Z,94972.00
2023-05-05T07:12:11.862Z,94974.00
2023-05-05T07:13:11.947Z,94974.00
2023-05-05T07:14:11.988Z,94972.00
2023-05-05T07:15:26.033Z,94972.00
2023-05-05T07:16:12.930Z,94972.00
2023-05-05T07:17:11.821Z,94972.00
2023-05-05T07:18:11.873Z,94968.00
2023-05-05T07:19:11.822Z,94968.00
2023-05-05T07:20:11.845Z,94970.00
2023-05-05T07:21:11.796Z,94970.00
2023-05-05T07:22:11.813Z,94968.00
2023-05-05T07:23:11.795Z,94964.00
2023-05-05T07:24:11.851Z,94966.00
2023-05-05T07:25:11.778Z,94962.00
2023-05-05T07:26:11.783Z,94960.00
2023-05-05T07:27:11.763Z,94960.00
2023-05-05T07:28:11.769Z,94958.00
2023-05-05T07:29:11.990Z,94956.00
2023-05-05T07:30:14.753Z,94954.00
2023-05-05T07:31:12.861Z,94950.00
2023-05-05T07:32:11.769Z,94952.00
2023-05-05T07:33:11.752Z,94956.00
2023-05-05T07:34:11.950Z,94952.00
2023-05-05T07:35:11.729Z,94946.00
2023-05-05T07:36:11.769Z,94944.00
2023-05-05T07:37:11.690Z,94944.00
2023-05-05T07:38:11.716Z,94944.00
2023-05-05T07:39:11.686Z,94944.00
2023-05-05T07:40:11.796Z,94944.00
2023-05-05T07:41:11.672Z,94941.00
2023-05-05T07:42:11.676Z,94939.00
2023-05-05T07:43:11.646Z,94935.00
2023-05-05T07:44:11.642Z,94935.00
2023-05-05T07:45:11.655Z,94935.00
2023-05-05T07:46:11.749Z,94933.00
2023-05-05T07:47:11.659Z,94933.00
2023-05-05T07:48:11.662Z,94931.00
2023-05-05T07:49:11.672Z,94927.00
2023-05-05T07:50:11.755Z,94925.00
2023-05-05T07:51:11.755Z,94927.00
2023-05-05T07:52:11.717Z,94923.00
2023-05-05T07:53:14.917Z,94923.00
2023-05-05T07:54:11.693Z,94925.00
2023-05-05T07:55:11.708Z,94927.00
2023-05-05T07:56:11.674Z,94925.00
2023-05-05T07:57:11.650Z,94921.00
2023-05-05T07:58:11.682Z,94923.00
2023-05-05T07:59:11.684Z,94919.00
2023-05-05T08:00:11.776Z,94921.00
2023-05-05T08:01:11.627Z,94919.00
2023-05-05T08:02:11.767Z,94917.00
2023-05-05T08:03:12.300Z,94919.00
2023-05-05T08:04:11.678Z,94915.00
2023-05-05T08:05:11.704Z,94919.00
2023-05-05T08:06:11.612Z,94919.00
2023-05-05T08:07:11.580Z,94917.00
2023-05-05T08:08:11.595Z,94919.00
2023-05-05T08:09:11.656Z,94917.00
2023-05-05T08:10:11.584Z,94913.00
2023-05-05T08:11:11.575Z,94911.00
2023-05-05T08:12:11.976Z,94913.00
2023-05-05T08:13:11.556Z,94911.00
2023-05-05T08:14:11.533Z,94909.00
2023-05-05T08:15:11.656Z,94907.00
2023-05-05T08:16:11.534Z,94907.00
2023-05-05T08:17:11.528Z,94905.00
2023-05-05T08:18:11.593Z,94903.00
2023-05-05T08:19:21.542Z,94905.00
2023-05-05T08:20:12.489Z,94905.00
2023-05-05T08:21:11.484Z,94901.00
2023-05-05T08:22:11.494Z,94899.00
2023-05-05T08:23:11.570Z,94897.00
2023-05-05T08:24:11.471Z,94897.00
2023-05-05T08:25:11.477Z,94896.00
2023-05-05T08:26:11.447Z,94896.00
2023-05-05T08:27:11.460Z,94894.00
2023-05-05T08:28:11.490Z,94890.00
2023-05-05T08:29:11.533Z,94890.00
2023-05-05T08:30:12.020Z,94882.00
2023-05-05T08:31:11.445Z,94878.00
2023-05-05T08:32:11.417Z,94874.00
2023-05-05T08:33:11.459Z,94876.00
2023-05-05T08:34:11.517Z,94876.00
2023-05-05T08:35:11.999Z,94876.00
2023-05-05T08:36:11.429Z,94874.00
2023-05-05T08:37:11.395Z,94870.00
2023-05-05T08:38:11.486Z,94868.00
2023-05-05T08:39:11.392Z,94866.00
2023-05-05T08:40:11.391Z,94866.00
2023-05-05T08:41:11.392Z,94862.00
2023-05-05T08:42:11.400Z,94862.00
2023-05-05T08:43:11.346Z,94858.00
2023-05-05T08:44:11.532Z,94858.00
2023-05-05T08:45:11.597Z,94856.00
2023-05-05T08:46:11.375Z,94854.00
2023-05-05T08:47:11.366Z,94854.00
2023-05-05T08:48:11.340Z,94852.00
2023-05-05T08:49:11.287Z,94851.00
2023-05-05T08:50:11.334Z,94851.00
2023-05-05T08:51:11.292Z,94849.00
2023-05-05T08:52:11.349Z,94849.00
2023-05-05T08:53:11.386Z,94849.00
2023-05-05T08:54:11.287Z,94847.00
2023-05-05T08:55:11.255Z,94851.00
2023-05-05T08:56:11.227Z,94851.00
2023-05-05T08:57:11.253Z,94851.00
2023-05-05T08:58:11.233Z,94849.00
2023-05-05T08:59:11.264Z,94843.00
2023-05-05T09:00:11.366Z,94841.00
2023-05-05T09:01:11.433Z,94843.00
2023-05-05T09:02:11.487Z,94839.00
2023-05-05T09:03:11.751Z,94841.00
2023-05-05T09:04:11.536Z,94839.00
2023-05-05T09:05:11.563Z,94837.00
2023-05-05T09:06:11.673Z,94839.00
2023-05-05T09:07:11.681Z,94835.00
2023-05-05T09:08:11.716Z,94835.00
2023-05-05T09:09:11.723Z,94837.00
2023-05-05T09:10:11.825Z,94837.00
2023-05-05T09:11:11.805Z,94833.00
2023-05-05T09:12:11.850Z,94833.00
2023-05-05T09:13:11.881Z,94829.00
2023-05-05T09:14:11.886Z,94831.00
2023-05-05T09:15:11.932Z,94831.00
2023-05-05T09:16:11.978Z,94827.00
2023-05-05T09:17:11.967Z,94825.00
2023-05-05T09:18:12.054Z,94825.00
2023-05-05T09:19:12.048Z,94823.00
2023-05-05T09:20:12.046Z,94821.00
2023-05-05T09:21:12.050Z,94821.00
2023-05-05T09:22:12.149Z,94821.00
2023-05-05T09:23:12.130Z,94819.00
2023-05-05T09:24:12.225Z,94815.00
2023-05-05T09:25:12.173Z,94819.00
2023-05-05T09:26:12.192Z,94817.00
2023-05-05T09:27:12.201Z,94817.00
2023-05-05T09:28:12.210Z,94815.00
2023-05-05T09:29:12.199Z,94813.00
2023-05-05T09:30:12.204Z,94815.00
2023-05-05T09:31:12.401Z,94811.00
2023-05-05T09:32:12.225Z,94811.00
2023-05-05T09:33:12.300Z,94809.00
2023-05-05T09:34:12.241Z,94805.00
2023-05-05T09:35:12.384Z,94803.00
2023-05-05T09:36:12.282Z,94803.00
2023-05-05T09:37:12.249Z,94799.00
2023-05-05T09:38:12.498Z,94801.00
2023-05-05T09:39:12.271Z,94797.00
2023-05-05T09:40:12.273Z,94797.00
2023-05-05T09:41:12.298Z,94794.00
2023-05-05T09:42:12.247Z,94794.00
2023-05-05T09:43:12.320Z,94790.00
2023-05-05T09:44:12.521Z,94790.00
2023-05-05T09:45:12.277Z,94790.00
2023-05-05T09:46:12.295Z,94786.00
2023-05-05T09:47:25.907Z,94788.00
2023-05-05T09:48:13.301Z,94786.00
2023-05-05T09:49:12.331Z,94784.00
2023-05-05T09:50:12.284Z,94784.00
2023-05-05T09:51:12.359Z,94784.00
2023-05-05T09:52:12.267Z,94782.00
2023-05-05T09:53:12.252Z,94774.00
2023-05-05T09:54:12.284Z,94774.00
2023-05-05T09:55:12.251Z,94774.00
2023-05-05T09:56:12.253Z,94772.00
2023-05-05T09:57:12.255Z,94768.00
2023-05-05T09:58:12.271Z,94770.00
2023-05-05T09:59:12.229Z,94770.00
2023-05-05T10:00:12.265Z,94768.00
2023-05-05T10:01:12.250Z,94764.00
2023-05-05T10:02:12.220Z,94766.00
2023-05-05T10:03:12.213Z,94762.00
2023-05-05T10:04:12.183Z,94762.00
2023-05-05T10:05:12.262Z,94760.00
2023-05-05T10:06:12.304Z,94760.00
2023-05-05T10:07:12.307Z,94760.00
2023-05-05T10:08:12.433Z,94754.00
2023-05-05T10:09:12.421Z,94756.00
2023-05-05T10:10:12.530Z,94751.00
2023-05-05T10:11:12.494Z,94754.00
2023-05-05T10:12:12.566Z,94753.00
2023-05-05T10:13:12.707Z,94749.00
2023-05-05T10:14:12.701Z,94753.00
2023-05-05T10:15:12.722Z,94749.00
2023-05-05T10:16:12.781Z,94749.00
2023-05-05T10:17:12.797Z,94747.00
2023-05-05T10:18:12.983Z,94747.00
2023-05-05T10:19:12.932Z,94747.00
2023-05-05T10:20:12.939Z,94745.00
2023-05-05T10:21:12.945Z,94745.00
2023-05-05T10:22:12.996Z,94741.00
2023-05-05T10:23:13.056Z,94739.00
2023-05-05T10:24:13.083Z,94735.00
2023-05-05T10:25:13.050Z,94735.00
2023-05-05T10:26:13.071Z,94739.00
2023-05-05T10:27:13.117Z,94739.00
2023-05-05T10:28:13.520Z,94735.00
2023-05-05T10:29:13.087Z,94737.00
2023-05-05T10:30:13.098Z,94733.00
2023-05-05T10:31:24.176Z,94729.00
2023-05-05T10:32:40.826Z,94727.00
2023-05-05T10:33:30.280Z,94725.00
2023-05-05T10:34:14.131Z,94723.00
2023-05-05T10:35:13.093Z,94719.00
2023-05-05T10:36:13.118Z,94721.00
2023-05-05T10:37:13.107Z,94717.00
2023-05-05T10:38:13.096Z,94715.00
2023-05-05T10:39:13.077Z,94711.00
2023-05-05T10:40:13.048Z,94711.00
2023-05-05T10:41:13.043Z,94707.00
2023-05-05T10:42:13.159Z,94703.00
2023-05-05T10:43:13.524Z,94703.00
2023-05-05T10:44:13.027Z,94700.00
2023-05-05T10:45:13.046Z,94703.00
2023-05-05T10:46:13.102Z,94700.00
2023-05-05T10:47:13.156Z,94698.00
2023-05-05T10:48:13.157Z,94694.00
2023-05-05T10:49:13.513Z,94694.00
2023-05-05T10:50:13.059Z,94694.00
2023-05-05T10:51:15.426Z,94694.00
2023-05-05T10:52:13.974Z,94690.00
2023-05-05T10:53:12.958Z,94690.00
2023-05-05T10:54:13.074Z,94688.00
2023-05-05T10:55:13.098Z,94684.00
2023-05-05T10:56:12.935Z,94682.00
2023-05-05T10:57:12.962Z,94682.00
2023-05-05T10:58:12.977Z,94678.00
2023-05-05T10:59:12.912Z,94676.00
2023-05-05T11:00:15.035Z,94674.00
2023-05-05T11:01:13.002Z,94674.00
2023-05-05T11:02:13.048Z,94670.00
2023-05-05T11:03:13.157Z,94666.00
2023-05-05T11:04:13.148Z,94664.00
2023-05-05T11:05:13.571Z,94660.00
2023-05-05T11:06:13.257Z,94658.00
2023-05-05T11:07:15.019Z,94658.00
2023-05-05T11:08:13.426Z,94658.00
2023-05-05T11:09:13.479Z,94656.00
2023-05-05T11:10:13.509Z,94650.00
2023-05-05T11:11:13.536Z,94648.00
2023-05-05T11:12:13.685Z,94648.00
2023-05-05T11:13:13.663Z,94645.00
2023-05-05T11:14:13.901Z,94643.00
2023-05-05T11:15:13.722Z,94641.00
2023-05-05T11:16:13.794Z,94639.00
2023-05-05T11:17:13.918Z,94639.00
2023-05-05T11:18:13.875Z,94635.00
2023-05-05T11:19:13.850Z,94623.00
2023-05-05T11:20:13.973Z,94621.00
2023-05-05T11:21:14.008Z,94619.00
2023-05-05T11:22:13.997Z,94619.00
2023-05-05T11:23:16.567Z,94617.00
2023-05-05T11:24:14.363Z,94613.00
2023-05-05T11:25:14.404Z,94611.00
2023-05-05T11:26:14.415Z,94609.00
2023-05-05T11:27:14.459Z,94607.00
2023-05-05T11:28:14.583Z,94607.00
2023-05-05T11:29:14.588Z,94605.00
2023-05-05T11:30:14.740Z,94605.00
2023-05-05T11:31:14.677Z,94602.00
2023-05-05T11:32:14.690Z,94602.00
2023-05-05T11:33:14.699Z,94602.00
2023-05-05T11:34:14.725Z,94602.00
2023-05-05T11:35:14.718Z,94600.00
2023-05-05T11:36:14.700Z,94598.00
2023-05-05T11:37:14.701Z,94596.00
2023-05-05T11:38:14.711Z,94596.00
2023-05-05T11:39:14.703Z,94592.00
2023-05-05T11:40:14.703Z,94592.00
2023-05-05T11:41:14.712Z,94588.00
2023-05-05T11:42:14.710Z,94586.00
2023-05-05T11:43:14.694Z,94584.00
2023-05-05T11:44:14.719Z,94580.00